< < Back
Terminal Aerodrome Forecast


Current Version              Previous Versions:   1  2  3  4  5  6  7  8  9  

Terminal Aerodrome Forecast

446
FTUS42 KGSP 181700
TAFAND
TAF
KAND 181735Z 1818/1918 00000KT P6SM SCT040 BKN250
     FM190400 04005KT P6SM BKN045
     FM190900 05005KT 4SM BR BKN018
     FM191100 06006KT 3SM BR OVC007
     FM191400 07007KT P6SM BKN019
     FM191600 08008KT P6SM BKN040=

Latest METAR

348
SAUS70 KWBC 190500 RRD
MTRAND
METAR KAND 190456Z AUTO 05004KT 10SM CLR 20/18 A3003 RMK AO2 SLP160
T02000183 402780167 $


USA.gov is the U.S. government's official web portal to all federal, state and local government web resources and services.